Time;durP1;ratioP1;P1;durP2;ratioP2;P2;SDS_P1;SDS_P2;PMS_P1;PMS_P2;Temp;Humidity;BMP_temperature;BMP_pressure;BME280_temperature;BME280_humidity;BME280_pressure;Samples;Min_cycle;Max_cycle;Signal;HPM_P1;HPM_P2
2021/01/31 00:00:30;;;;;;;20.00;11.65;;;;;;;-0.30;58.96;97838.41;5052773;28;20051;-50
2021/01/31 00:02:56;;;;;;;17.73;11.02;;;;;;;-0.52;58.62;97808.31;5044801;28;20082;-53
2021/01/31 00:05:23;;;;;;;17.30;10.55;;;;;;;-0.36;58.95;97841.47;5052486;28;20080;-54
2021/01/31 00:07:49;;;;;;;18.58;11.60;;;;;;;-0.37;59.08;97840.59;5053153;28;20040;-53
2021/01/31 00:10:25;;;;;;;20.20;11.80;;;;;;;-0.37;59.04;97839.78;5052475;28;20415;-51
2021/01/31 00:12:51;;;;;;;19.60;11.15;;;;;;;-0.39;59.35;97839.88;5052705;28;20071;-52
2021/01/31 00:15:19;;;;;;;18.27;11.18;;;;;;;-0.37;59.12;97837.13;5052342;28;20488;-49
2021/01/31 00:17:46;;;;;;;18.80;11.25;;;;;;;-0.37;59.55;97835.34;5052325;28;20025;-50
2021/01/31 00:20:13;;;;;;;19.63;12.02;;;;;;;-0.36;58.64;97834.44;5052540;28;20119;-52
2021/01/31 00:22:39;;;;;;;23.75;13.27;;;;;;;-0.41;58.71;97819.91;5052526;28;20029;-50
2021/01/31 00:25:05;;;;;;;21.13;12.00;;;;;;;-0.36;59.13;97812.53;5052505;28;20040;-51
2021/01/31 00:27:31;;;;;;;19.73;12.02;;;;;;;-0.28;59.08;97812.84;5052418;28;20503;-50
2021/01/31 00:29:56;;;;;;;19.45;11.38;;;;;;;-0.34;58.66;97784.34;5052589;28;20037;-51
2021/01/31 00:32:28;;;;;;;23.35;12.18;;;;;;;-0.37;58.78;97795.91;5051450;28;20037;-50
2021/01/31 00:34:55;;;;;;;20.00;11.68;;;;;;;-0.35;58.88;97794.03;5051950;28;20037;-48
2021/01/31 00:37:22;;;;;;;18.27;12.07;;;;;;;-0.44;58.84;97774.47;5051778;28;20033;-52
2021/01/31 00:39:49;;;;;;;22.75;12.38;;;;;;;-0.37;59.43;97784.56;5050916;28;20225;-49
2021/01/31 00:42:16;;;;;;;20.48;12.70;;;;;;;-0.42;59.47;97770.88;5051501;28;20040;-53
2021/01/31 00:44:51;;;;;;;22.65;13.25;;;;;;;-0.35;59.51;97790.53;5052208;28;20032;-49
2021/01/31 00:47:17;;;;;;;23.95;12.93;;;;;;;-0.37;59.81;97790.63;5051708;28;20043;-52
2021/01/31 00:49:43;;;;;;;24.27;12.80;;;;;;;-0.35;59.07;97788.78;5051500;28;20033;-52
2021/01/31 00:52:10;;;;;;;20.10;12.95;;;;;;;-0.42;59.26;97755.13;5051505;28;20475;-49
2021/01/31 00:54:35;;;;;;;22.17;12.95;;;;;;;-0.67;59.79;97730.50;5052338;28;20119;-49
2021/01/31 00:57:00;;;;;;;25.52;13.73;;;;;;;-0.58;59.40;97743.00;5051501;28;20152;-48
2021/01/31 00:59:26;;;;;;;23.30;12.93;;;;;;;-0.49;59.27;97757.31;5051540;28;20037;-51
2021/01/31 01:01:52;;;;;;;22.13;13.05;;;;;;;-0.52;59.64;97766.25;5051400;28;20037;-51
2021/01/31 01:04:17;;;;;;;22.75;13.40;;;;;;;-1.03;59.09;97680.38;5051824;28;20044;-51
2021/01/31 01:06:45;;;;;;;22.45;13.65;;;;;;;-0.54;59.83;97754.16;5051242;28;20044;-51
2021/01/31 01:09:11;;;;;;;22.42;13.88;;;;;;;-0.64;59.28;97727.66;5051890;28;20036;-55
2021/01/31 01:11:37;;;;;;;23.80;14.05;;;;;;;-0.60;59.52;97753.66;5051354;28;20110;-53
2021/01/31 01:14:02;;;;;;;24.75;14.98;;;;;;;-0.57;59.65;97742.06;5051242;28;20048;-50
2021/01/31 01:16:27;;;;;;;24.45;14.73;;;;;;;-0.61;59.41;97730.91;5050735;28;20113;-49
2021/01/31 01:18:53;;;;;;;24.23;14.25;;;;;;;-0.63;59.80;97737.25;5049647;28;20485;-51
2021/01/31 01:21:18;;;;;;;25.60;14.38;;;;;;;-0.64;59.49;97743.44;5051188;28;20477;-53
2021/01/31 01:23:44;;;;;;;22.50;14.35;;;;;;;-0.66;59.80;97732.19;5051305;28;20037;-49
2021/01/31 01:26:09;;;;;;;25.75;15.40;;;;;;;-0.76;59.57;97711.78;5051760;28;20059;-53
2021/01/31 01:28:35;;;;;;;25.95;14.48;;;;;;;-0.77;59.34;97719.78;5049853;28;20028;-51
2021/01/31 01:31:00;;;;;;;23.42;14.27;;;;;;;-0.67;59.61;97715.56;5051385;28;20521;-50
2021/01/31 01:33:26;;;;;;;26.38;13.52;;;;;;;-0.74;59.33;97695.91;5050318;28;20037;-48
2021/01/31 01:35:51;;;;;;;28.23;14.43;;;;;;;-0.66;59.50;97696.22;5051507;28;20068;-49
2021/01/31 01:38:17;;;;;;;25.10;14.35;;;;;;;-0.57;59.75;97713.16;5050875;28;20037;-45
2021/01/31 01:40:42;;;;;;;25.30;14.65;;;;;;;-0.54;59.36;97699.78;5050592;28;20504;-54
2021/01/31 01:43:19;;;;;;;26.20;15.23;;;;;;;-0.50;60.16;97685.47;5050603;28;20041;-48
2021/01/31 01:46:03;;;;;;;27.30;14.38;;;;;;;-0.37;59.43;97674.13;5051181;28;20109;-54
2021/01/31 01:48:29;;;;;;;26.13;15.73;;;;;;;-0.45;58.93;97688.66;5050734;28;20144;-49
2021/01/31 01:50:54;;;;;;;25.90;15.15;;;;;;;-0.48;59.05;97681.00;5048567;28;20044;-50
2021/01/31 01:53:23;;;;;;;29.25;14.98;;;;;;;-0.53;59.37;97687.50;5050439;28;20029;-51
2021/01/31 01:55:56;;;;;;;26.83;15.32;;;;;;;-0.85;59.51;97607.31;5049773;28;20489;-52
2021/01/31 01:58:22;;;;;;;28.58;15.88;;;;;;;-0.53;59.66;97662.03;5050730;28;20037;-47
2021/01/31 02:00:49;;;;;;;26.20;15.27;;;;;;;-0.48;59.86;97667.84;5050491;28;20047;-52
2021/01/31 02:03:22;;;;;;;29.58;15.90;;;;;;;-0.51;59.52;97652.25;5048783;28;20047;-54
2021/01/31 02:06:14;;;;;;;25.33;15.30;;;;;;;-0.36;59.70;97649.50;5048410;28;20047;-52
2021/01/31 02:08:40;;;;;;;26.33;15.10;;;;;;;-0.35;59.01;97648.56;5047691;28;20472;-52
2021/01/31 02:11:06;;;;;;;25.30;15.18;;;;;;;-0.36;59.28;97628.47;5050413;28;20040;-49
2021/01/31 02:13:32;;;;;;;24.23;15.63;;;;;;;-0.42;58.97;97618.41;5050755;28;20048;-49
2021/01/31 02:15:59;;;;;;;25.42;15.55;;;;;;;-0.45;59.23;97608.94;5050344;28;20431;-48
2021/01/31 02:18:24;;;;;;;25.45;15.40;;;;;;;-0.27;59.46;97619.09;5050084;28;20087;-54
2021/01/31 02:21:27;;;;;;;34.60;18.05;;;;;;;-0.22;58.92;97612.56;5050413;28;20040;-50
2021/01/31 02:24:25;;;;;;;31.13;17.73;;;;;;;-0.29;60.00;97608.66;5050750;28;20032;-50
2021/01/31 02:27:06;;;;;;;29.02;16.17;;;;;;;-0.30;59.10;97602.59;5050051;28;20076;-51
2021/01/31 02:30:11;;;;;;;33.00;17.35;;;;;;;-0.38;59.59;97596.19;5050305;28;20044;-49
2021/01/31 02:33:03;;;;;;;29.63;17.27;;;;;;;-0.49;59.46;97597.78;5049282;28;20075;-48
2021/01/31 02:35:30;;;;;;;29.58;16.88;;;;;;;-0.51;59.68;97586.53;5048486;28;20060;-52
2021/01/31 02:38:21;;;;;;;33.42;18.90;;;;;;;-0.61;60.11;97588.97;5049764;28;20037;-48
2021/01/31 02:40:57;;;;;;;29.48;16.65;;;;;;;-0.57;59.56;97591.41;5049775;28;20033;-47
2021/01/31 02:43:41;;;;;;;30.73;17.02;;;;;;;-0.65;60.21;97581.44;5050001;28;20492;-50
2021/01/31 02:46:29;;;;;;;32.65;17.63;;;;;;;-0.61;59.90;97581.09;5049788;28;20496;-48
2021/01/31 02:49:18;;;;;;;34.00;18.45;;;;;;;-0.58;60.18;97572.16;5032361;28;20057;-49
2021/01/31 02:51:52;;;;;;;34.15;17.67;;;;;;;-0.53;59.91;97569.22;5037866;28;20040;-50
2021/01/31 02:54:33;;;;;;;31.38;16.75;;;;;;;-0.41;60.28;97570.94;5049621;28;20217;-52
2021/01/31 02:57:21;;;;;;;30.05;16.15;;;;;;;-0.27;60.06;97577.00;5049831;28;20032;-52
2021/01/31 02:59:49;;;;;;;32.85;17.98;;;;;;;-0.39;59.94;97557.72;5049378;28;20040;-50
2021/01/31 03:02:21;;;;;;;31.92;17.55;;;;;;;-0.48;59.75;97536.41;5049940;28;20029;-52
2021/01/31 03:04:59;;;;;;;29.60;16.15;;;;;;;-0.28;60.48;97576.16;5053966;28;20094;-52
2021/01/31 03:07:33;;;;;;;27.50;16.33;;;;;;;-0.30;60.30;97564.91;5053898;28;20029;-52
2021/01/31 03:10:08;;;;;;;30.00;17.15;;;;;;;-0.29;60.33;97558.72;5053563;28;20029;-48
2021/01/31 03:12:42;;;;;;;33.92;19.13;;;;;;;-0.28;60.55;97557.75;5054016;28;20114;-51
2021/01/31 03:15:17;;;;;;;32.87;18.33;;;;;;;-0.25;60.31;97561.97;5054106;28;20084;-51
2021/01/31 03:18:01;;;;;;;35.25;18.88;;;;;;;-0.35;59.69;97524.97;5053611;28;20497;-48
2021/01/31 03:20:31;;;;;;;33.25;18.52;;;;;;;-0.47;59.81;97538.06;5053627;28;20364;-49
2021/01/31 03:23:08;;;;;;;30.38;17.70;;;;;;;-0.46;60.85;97539.75;5053636;28;20527;-50
2021/01/31 03:25:46;;;;;;;35.80;18.90;;;;;;;-0.52;61.52;97536.72;5053692;28;20033;-49
2021/01/31 03:28:13;;;;;;;34.88;18.35;;;;;;;-0.51;61.29;97520.00;5053345;28;20056;-51
2021/01/31 03:30:39;;;;;;;31.10;17.90;;;;;;;-0.56;60.20;97501.94;5053249;28;20051;-49
2021/01/31 03:33:10;;;;;;;35.85;19.00;;;;;;;-0.54;61.12;97507.09;5053490;28;20032;-51
2021/01/31 03:35:43;;;;;;;29.83;16.92;;;;;;;-0.48;60.75;97522.41;5053271;28;20051;-53
2021/01/31 03:38:15;;;;;;;31.80;16.83;;;;;;;-0.66;60.60;97485.16;5053146;28;20361;-50
2021/01/31 03:40:47;;;;;;;32.80;17.83;;;;;;;-0.46;61.12;97517.88;5051635;28;20098;-52
2021/01/31 03:43:13;;;;;;;33.65;18.25;;;;;;;-0.45;61.03;97517.78;5053299;28;20047;-48
2021/01/31 03:46:02;;;;;;;29.65;17.10;;;;;;;-0.44;61.27;97505.44;5053224;28;20278;-49
2021/01/31 03:48:32;;;;;;;30.60;17.98;;;;;;;-0.33;60.75;97505.53;5053088;28;20040;-50
2021/01/31 03:50:58;;;;;;;31.70;17.50;;;;;;;-0.27;60.47;97495.50;5053149;28;20497;-48
2021/01/31 03:53:23;;;;;;;30.00;16.92;;;;;;;-0.47;60.62;97458.38;5053258;28;20119;-48
2021/01/31 03:55:49;;;;;;;27.13;15.80;;;;;;;-0.31;60.78;97497.50;5052972;28;20373;-49
2021/01/31 03:58:17;;;;;;;30.55;17.52;;;;;;;-0.33;60.56;97491.53;5052953;28;20060;-47
2021/01/31 04:00:53;;;;;;;31.67;17.48;;;;;;;-0.27;61.36;97491.06;5052827;28;20040;-49
2021/01/31 04:03:25;;;;;;;33.28;17.05;;;;;;;-0.22;60.84;97493.34;5053137;28;20037;-49
2021/01/31 04:06:06;;;;;;;30.05;17.15;;;;;;;-0.08;61.40;97497.59;5052955;28;20064;-50
2021/01/31 04:08:35;;;;;;;32.72;17.05;;;;;;;-0.12;60.64;97481.22;5052589;28;20504;-49
2021/01/31 04:11:00;;;;;;;32.22;18.15;;;;;;;-0.07;61.03;97475.59;5053081;28;20566;-49
2021/01/31 04:13:30;;;;;;;35.42;18.70;;;;;;;-0.10;61.02;97470.56;5051519;28;20131;-48
2021/01/31 04:15:58;;;;;;;32.20;18.25;;;;;;;-0.10;61.32;97470.56;5053136;28;20095;-49
2021/01/31 04:18:24;;;;;;;28.35;16.38;;;;;;;-0.19;61.17;97451.91;5052220;28;20049;-51
2021/01/31 04:20:51;;;;;;;31.55;17.10;;;;;;;-0.61;61.06;97377.91;5052858;28;20048;-46
2021/01/31 04:23:17;;;;;;;31.75;17.73;;;;;;;-0.13;61.11;97449.75;5052418;28;20029;-47
2021/01/31 04:25:44;;;;;;;30.60;16.73;;;;;;;-0.03;60.57;97463.88;5052411;28;20501;-48
2021/01/31 04:28:12;;;;;;;30.25;17.20;;;;;;;0.01;60.68;97464.50;5051673;28;20049;-48
2021/01/31 04:30:40;;;;;;;28.25;17.25;;;;;;;0.05;60.46;97460.69;5052299;28;20033;-48
2021/01/31 04:33:06;;;;;;;30.73;17.55;;;;;;;0.03;60.45;97450.28;5052030;28;20056;-49
2021/01/31 04:35:32;;;;;;;27.33;17.15;;;;;;;0.04;60.25;97461.63;5051746;28;20102;-49
2021/01/31 04:37:58;;;;;;;30.58;17.67;;;;;;;-0.10;60.81;97426.72;5052466;28;20029;-48
2021/01/31 04:40:24;;;;;;;30.88;17.42;;;;;;;0.06;60.62;97459.72;5051982;28;20041;-51
2021/01/31 04:42:49;;;;;;;29.95;17.48;;;;;;;0.01;60.27;97461.88;5052137;28;20033;-50
2021/01/31 04:45:15;;;;;;;31.52;17.98;;;;;;;-0.23;61.02;97429.41;5052011;28;20029;-51
2021/01/31 04:47:53;;;;;;;32.35;18.25;;;;;;;-0.05;61.01;97452.63;5051502;28;20033;-51
2021/01/31 04:50:28;;;;;;;29.17;16.85;;;;;;;-0.18;60.70;97453.59;5052268;28;20041;-53
2021/01/31 04:53:18;;;;;;;28.92;16.65;;;;;;;-0.15;61.36;97453.34;5052009;28;20035;-49
2021/01/31 04:55:55;;;;;;;32.47;17.90;;;;;;;-0.28;61.64;97447.31;5051292;28;20048;-52
2021/01/31 04:58:26;;;;;;;31.30;17.10;;;;;;;-0.44;61.95;97443.22;5050443;28;20047;-46
2021/01/31 05:00:59;;;;;;;30.83;16.67;;;;;;;-0.50;61.70;97455.97;5052199;28;20087;-47
2021/01/31 05:03:27;;;;;;;28.73;16.23;;;;;;;-0.61;61.88;97457.56;5051592;28;20040;-48
2021/01/31 05:06:02;;;;;;;33.72;18.08;;;;;;;-0.60;61.96;97464.53;5050924;28;20048;-49
2021/01/31 05:08:30;;;;;;;31.75;17.95;;;;;;;-0.69;62.53;97472.25;5051627;28;20037;-50
2021/01/31 05:11:00;;;;;;;34.83;19.67;;;;;;;-0.69;62.48;97480.13;5051269;28;20424;-50
2021/01/31 05:13:42;;;;;;;39.35;21.02;;;;;;;-0.74;62.79;97469.94;5050868;28;20072;-47
2021/01/31 05:16:13;;;;;;;32.67;18.42;;;;;;;-0.75;62.72;97476.97;5051390;28;20091;-52
2021/01/31 05:18:51;;;;;;;30.52;18.27;;;;;;;-0.75;62.07;97471.72;5051136;28;20052;-51
2021/01/31 05:21:19;;;;;;;34.08;19.23;;;;;;;-0.79;62.47;97469.44;5051349;28;20041;-53
2021/01/31 05:24:14;;;;;;;35.15;20.25;;;;;;;-0.74;62.10;97468.13;5050810;28;20040;-51
2021/01/31 05:26:42;;;;;;;36.58;20.30;;;;;;;-0.89;62.51;97454.31;5049585;28;20048;-51
2021/01/31 05:29:33;;;;;;;35.67;20.77;;;;;;;-0.77;62.76;97463.09;5050062;28;20107;-54
2021/01/31 05:32:06;;;;;;;38.17;21.52;;;;;;;-0.76;62.27;97469.22;5049993;28;20124;-52
2021/01/31 05:34:32;;;;;;;36.88;20.90;;;;;;;-0.73;61.98;97464.56;5051114;28;20033;-50
2021/01/31 05:37:03;;;;;;;38.65;22.40;;;;;;;-0.69;61.78;97474.88;5050520;28;20051;-47
2021/01/31 05:39:44;;;;;;;41.47;22.35;;;;;;;-0.65;61.81;97482.41;5050941;28;20561;-49
2021/01/31 05:42:14;;;;;;;38.72;20.65;;;;;;;-0.66;62.42;97470.22;5051137;28;20033;-49
2021/01/31 05:44:41;;;;;;;39.78;21.02;;;;;;;-0.68;62.22;97463.41;5051329;28;20087;-50
2021/01/31 05:47:25;;;;;;;37.90;21.33;;;;;;;-0.61;62.97;97469.88;5050908;28;20044;-50
2021/01/31 05:49:53;;;;;;;41.97;22.05;;;;;;;-0.62;62.14;97470.84;5050889;28;20033;-51
2021/01/31 05:52:18;;;;;;;41.92;23.20;;;;;;;-0.64;62.45;97460.44;5050714;28;20064;-52
2021/01/31 05:54:45;;;;;;;42.13;22.08;;;;;;;-0.66;62.45;97457.06;5051168;28;20071;-50
2021/01/31 05:57:22;;;;;;;39.88;22.35;;;;;;;-0.62;62.65;97466.41;5050920;28;20068;-50
2021/01/31 05:59:48;;;;;;;39.67;21.30;;;;;;;-0.65;62.43;97460.56;5050697;28;20036;-50
2021/01/31 06:02:25;;;;;;;44.45;22.60;;;;;;;-0.64;62.40;97470.13;5050701;28;20059;-49
2021/01/31 06:05:26;;;;;;;42.78;21.65;;;;;;;-0.64;62.66;97460.44;5050848;28;20056;-49
2021/01/31 06:08:24;;;;;;;37.78;19.55;;;;;;;-0.60;62.15;97468.94;5050178;28;20064;-51
2021/01/31 06:11:00;;;;;;;40.17;21.65;;;;;;;-0.92;61.80;97436.16;5050238;28;20032;-47
2021/01/31 06:13:25;;;;;;;36.97;19.17;;;;;;;-0.74;62.08;97462.06;5050176;28;20076;-49
2021/01/31 06:15:58;;;;;;;27.73;16.08;;;;;;;-0.74;61.37;97459.44;5050638;28;20130;-54
2021/01/31 06:18:32;;;;;;;26.35;14.27;;;;;;;-0.47;60.71;97453.09;5050069;28;20045;-54
2021/01/31 06:21:18;;;;;;;25.80;13.82;;;;;;;-0.84;60.35;97383.06;5050299;28;20515;-55
2021/01/31 06:23:50;;;;;;;22.35;12.90;;;;;;;-0.37;60.10;97453.25;5049707;28;20481;-52
2021/01/31 06:26:22;;;;;;;25.80;13.65;;;;;;;-0.23;59.84;97453.09;5050291;28;20455;-50
2021/01/31 06:28:51;;;;;;;24.10;13.05;;;;;;;-0.16;59.71;97456.06;5049647;28;20052;-49
2021/01/31 06:31:25;;;;;;;22.98;12.25;;;;;;;-0.06;59.57;97440.44;5049525;28;20619;-51
2021/01/31 06:33:51;;;;;;;23.52;12.75;;;;;;;-0.02;58.88;97450.63;5049869;28;20037;-50
2021/01/31 06:36:31;;;;;;;26.02;14.45;;;;;;;0.09;59.49;97444.56;5049474;28;20123;-49
2021/01/31 06:39:28;;;;;;;28.17;14.50;;;;;;;0.22;58.81;97454.13;5041915;28;20037;-47
2021/01/31 06:42:10;;;;;;;33.10;15.48;;;;;;;0.31;58.48;97445.56;5049353;28;20044;-50
2021/01/31 06:44:54;;;;;;;30.00;16.23;;;;;;;0.33;58.80;97445.41;5049475;28;20033;-50
2021/01/31 06:47:57;;;;;;;33.38;16.52;;;;;;;0.43;58.45;97447.22;5046888;28;20052;-50
2021/01/31 06:50:31;;;;;;;33.72;17.73;;;;;;;0.51;58.07;97435.28;5059103;28;20029;-53
2021/01/31 06:53:09;;;;;;;34.22;18.90;;;;;;;0.53;58.09;97439.44;5060007;28;20033;-53
2021/01/31 06:56:01;;;;;;;34.97;19.10;;;;;;;0.15;58.04;97377.47;5061227;28;20444;-53
2021/01/31 06:58:29;;;;;;;36.92;19.27;;;;;;;0.60;57.99;97429.28;5063354;28;20071;-54
2021/01/31 07:01:33;;;;;;;34.58;17.83;;;;;;;0.60;57.40;97428.44;5052897;28;20029;-51
2021/01/31 07:04:05;;;;;;;33.70;17.08;;;;;;;0.65;57.66;97427.13;5050299;28;20058;-53
2021/01/31 07:06:45;;;;;;;34.22;17.48;;;;;;;0.73;57.02;97423.88;5053668;28;20072;-48
2021/01/31 07:09:10;;;;;;;24.13;14.70;;;;;;;0.81;57.50;97432.00;5045650;28;20028;-48
2021/01/31 07:11:56;;;;;;;30.85;17.52;;;;;;;0.85;56.62;97429.97;5057507;28;20808;-51
2021/01/31 07:14:36;;;;;;;37.13;19.33;;;;;;;0.80;57.07;97432.16;5062720;28;20106;-49
2021/01/31 07:17:20;;;;;;;31.55;18.02;;;;;;;0.76;57.19;97430.72;5051491;28;20098;-51
2021/01/31 07:19:55;;;;;;;35.33;19.25;;;;;;;0.66;57.08;97430.59;5055756;28;20055;-49
2021/01/31 07:22:25;;;;;;;32.47;18.55;;;;;;;0.59;57.17;97435.50;5045079;28;20594;-52
2021/01/31 07:25:06;;;;;;;34.35;19.42;;;;;;;0.60;57.51;97436.31;5047417;28;20067;-49
2021/01/31 07:27:40;;;;;;;31.30;18.73;;;;;;;0.62;57.25;97419.47;5048948;28;20413;-58
2021/01/31 07:30:06;;;;;;;36.60;19.77;;;;;;;0.66;57.60;97423.53;5048744;28;20060;-56
2021/01/31 07:33:04;;;;;;;30.30;18.80;;;;;;;0.63;57.16;97407.97;5052024;28;20122;-62
2021/01/31 07:35:36;;;;;;;36.45;20.05;;;;;;;0.77;57.41;97427.13;5048011;28;20041;-62
2021/01/31 07:38:28;;;;;;;34.55;20.33;;;;;;;0.77;57.90;97421.84;5048770;28;20052;-57
2021/01/31 07:40:56;;;;;;;30.00;17.42;;;;;;;0.84;56.88;97413.34;5048378;28;20045;-61
2021/01/31 07:43:26;;;;;;;31.25;17.60;;;;;;;0.49;57.00;97359.03;5048704;28;20044;-61
2021/01/31 07:46:05;;;;;;;33.15;17.42;;;;;;;0.89;56.31;97423.50;5049593;28;20037;-61
2021/01/31 07:48:52;;;;;;;31.52;18.33;;;;;;;0.87;56.78;97433.31;5048745;28;20028;-58
2021/01/31 07:51:27;;;;;;;28.98;17.52;;;;;;;0.94;56.22;97439.78;5053296;28;20041;-60
2021/01/31 07:53:57;;;;;;;32.47;17.70;;;;;;;0.94;56.40;97434.50;5048156;28;20041;-62
2021/01/31 07:56:26;;;;;;;34.00;19.50;;;;;;;1.02;56.31;97441.81;5048936;28;20480;-61
2021/01/31 07:58:56;;;;;;;34.17;19.88;;;;;;;0.87;56.82;97421.97;5036617;28;20088;-60
2021/01/31 08:01:40;;;;;;;35.65;19.48;;;;;;;1.01;56.55;97429.59;5050512;28;20040;-61
2021/01/31 08:04:35;;;;;;;36.63;21.30;;;;;;;0.98;56.93;97424.56;5050047;28;20055;-60
2021/01/31 08:07:04;;;;;;;39.65;20.90;;;;;;;0.96;56.82;97431.75;5041131;28;20128;-61
2021/01/31 08:09:29;;;;;;;33.13;20.08;;;;;;;0.87;56.63;97425.41;5050792;28;20124;-61
2021/01/31 08:12:07;;;;;;;33.65;18.90;;;;;;;0.87;57.10;97422.78;5049940;28;20519;-62
2021/01/31 08:15:03;;;;;;;31.65;17.95;;;;;;;0.93;56.38;97416.19;5049575;28;20048;-61
2021/01/31 08:17:47;;;;;;;32.00;17.70;;;;;;;1.00;56.43;97407.69;5050335;28;20049;-63
2021/01/31 08:20:21;;;;;;;33.97;19.02;;;;;;;1.03;56.64;97416.31;5052297;28;20045;-66
2021/01/31 08:22:47;;;;;;;34.58;19.23;;;;;;;1.17;56.96;97423.91;5051878;28;20044;-66
2021/01/31 08:25:12;;;;;;;39.83;20.35;;;;;;;1.36;56.05;97427.69;5050530;28;20094;-62
2021/01/31 08:27:40;;;;;;;37.05;19.88;;;;;;;1.43;55.87;97408.63;5052045;28;20041;-63
2021/01/31 08:30:20;;;;;;;38.70;20.00;;;;;;;1.44;55.94;97406.81;5051380;28;20556;-62
2021/01/31 08:32:58;;;;;;;37.30;21.38;;;;;;;0.55;55.39;97271.66;5051718;28;20037;-65
2021/01/31 08:35:42;;;;;;;34.78;19.33;;;;;;;1.24;55.49;97409.28;5051864;28;20049;-61
2021/01/31 08:38:16;;;;;;;35.00;20.15;;;;;;;1.20;55.34;97402.56;5050897;28;20041;-63
2021/01/31 08:41:02;;;;;;;33.20;19.95;;;;;;;1.15;55.84;97391.56;5050498;28;20401;-64
2021/01/31 08:43:41;;;;;;;;;;;;;;;1.51;55.33;97388.69;5050064;28;20131;-61
2021/01/31 08:46:35;;;;;;;34.75;20.15;;;;;;;1.47;54.86;97382.00;5051401;28;19920;-64
2021/01/31 08:49:13;;;;;;;36.33;20.77;;;;;;;1.33;54.81;97380.50;5039591;28;20040;-64
2021/01/31 08:51:43;;;;;;;31.67;19.38;;;;;;;1.23;55.62;97378.63;5052004;28;20041;-59
2021/01/31 08:54:16;;;;;;;38.05;20.30;;;;;;;1.36;55.58;97385.53;5049927;28;20072;-57
2021/01/31 08:56:47;;;;;;;39.70;21.52;;;;;;;1.41;55.01;97404.44;5050843;28;20054;-56
2021/01/31 08:59:31;;;;;;;33.45;19.85;;;;;;;1.48;55.19;97410.88;5044937;28;20045;-54
2021/01/31 09:02:09;;;;;;;37.47;20.05;;;;;;;1.56;55.00;97402.31;5049642;28;20032;-54
2021/01/31 09:04:37;;;;;;;36.28;19.63;;;;;;;1.53;54.60;97390.25;5058374;28;20510;-56
2021/01/31 09:07:03;;;;;;;39.25;21.13;;;;;;;1.75;54.32;97416.63;5050938;28;20033;-52
2021/01/31 09:09:37;;;;;;;35.95;20.15;;;;;;;1.84;53.42;97395.59;5050895;28;20037;-59
2021/01/31 09:12:05;;;;;;;29.95;17.13;;;;;;;1.95;53.14;97404.44;5052929;28;20056;-58
2021/01/31 09:14:35;;;;;;;32.20;17.95;;;;;;;1.43;52.13;97320.75;5049833;28;20128;-54
2021/01/31 09:17:19;;;;;;;30.52;17.35;;;;;;;2.02;52.05;97418.75;5053868;28;20124;-55
2021/01/31 09:19:45;;;;;;;33.65;17.65;;;;;;;2.07;53.05;97432.41;5054653;28;20412;-58
2021/01/31 09:22:22;;;;;;;28.17;16.27;;;;;;;1.99;52.31;97403.19;5053886;28;20063;-54
2021/01/31 09:24:52;;;;;;;25.67;14.90;;;;;;;2.20;52.55;97416.38;5054065;28;20036;-57
2021/01/31 09:27:24;;;;;;;23.20;13.75;;;;;;;2.22;51.18;97413.59;5055517;28;20028;-58
2021/01/31 09:29:57;;;;;;;22.98;13.40;;;;;;;2.24;52.45;97411.66;5057003;28;20073;-55
2021/01/31 09:32:43;;;;;;;23.38;13.57;;;;;;;2.32;51.23;97409.19;5061300;28;20040;-59
2021/01/31 09:35:11;;;;;;;27.85;14.23;;;;;;;2.17;51.88;97394.66;5059118;28;20145;-61
2021/01/31 09:37:36;;;;;;;24.20;13.98;;;;;;;2.30;52.10;97405.84;5056537;28;20547;-57
2021/01/31 09:40:08;;;;;;;24.40;13.80;;;;;;;1.80;51.23;97335.28;5055073;28;20128;-59
2021/01/31 09:42:37;;;;;;;26.75;14.40;;;;;;;2.13;51.82;97394.09;5055583;28;20041;-52
2021/01/31 09:45:32;;;;;;;26.52;14.73;;;;;;;2.38;51.92;97428.97;5065715;28;20068;-57
2021/01/31 09:47:58;;;;;;;23.48;14.05;;;;;;;2.18;52.00;97396.38;5055591;28;20040;-56
2021/01/31 09:50:23;;;;;;;23.88;14.57;;;;;;;2.20;52.27;97415.53;5058879;28;20033;-59
2021/01/31 09:52:51;;;;;;;23.38;14.02;;;;;;;2.15;52.31;97415.94;5043212;28;20045;-60
2021/01/31 09:55:38;;;;;;;23.00;13.98;;;;;;;2.06;52.51;97392.97;5048910;28;20041;-61
2021/01/31 09:58:14;;;;;;;25.83;14.23;;;;;;;2.11;52.80;97414.53;5049389;28;20033;-59
2021/01/31 10:00:40;;;;;;;25.83;14.95;;;;;;;2.15;52.94;97406.19;5041411;28;20485;-61
2021/01/31 10:03:11;;;;;;;21.70;13.18;;;;;;;2.14;52.58;97417.72;5048459;28;20123;-54
2021/01/31 10:05:37;;;;;;;26.33;14.85;;;;;;;2.13;52.57;97415.22;5049135;28;20067;-60
2021/01/31 10:08:12;;;;;;;30.17;15.60;;;;;;;1.90;52.61;97383.69;5048073;28;20069;-62
2021/01/31 10:10:43;;;;;;;25.50;14.55;;;;;;;2.01;53.04;97410.00;5048559;28;20154;-62
2021/01/31 10:13:21;;;;;;;24.70;14.85;;;;;;;2.19;52.72;97419.16;5047667;28;20308;-60
2021/01/31 10:15:58;;;;;;;26.20;14.23;;;;;;;2.24;52.96;97407.22;5048651;28;20156;-61
2021/01/31 10:18:38;;;;;;;20.60;13.35;;;;;;;2.47;52.18;97422.88;5047034;28;20075;-59
2021/01/31 10:21:21;;;;;;;35.78;19.85;;;;;;;2.51;53.17;97426.13;5048037;28;20032;-58
2021/01/31 10:23:59;;;;;;;21.95;12.20;;;;;;;2.43;51.62;97432.06;5047598;28;20158;-54
2021/01/31 10:26:25;;;;;;;20.25;12.50;;;;;;;2.04;52.35;97392.22;5048015;28;20199;-57
2021/01/31 10:29:06;;;;;;;17.70;10.45;;;;;;;2.03;52.30;97423.09;5046758;28;20108;-60
2021/01/31 10:31:40;;;;;;;16.23;9.23;;;;;;;2.07;52.33;97442.97;5048887;28;20037;-62
2021/01/31 10:34:10;;;;;;;14.27;8.60;;;;;;;1.98;51.87;97435.84;5047932;28;20052;-54
2021/01/31 10:36:40;;;;;;;14.45;7.35;;;;;;;1.85;52.47;97436.84;5040708;28;20045;-53
2021/01/31 10:39:08;;;;;;;12.98;6.88;;;;;;;1.83;52.39;97444.06;5048786;28;20112;-56
2021/01/31 10:41:34;;;;;;;12.88;8.15;;;;;;;1.53;52.52;97416.63;5047914;28;20037;-59
2021/01/31 10:44:06;;;;;;;13.60;7.90;;;;;;;1.62;52.85;97451.09;5046757;28;20045;-59
2021/01/31 10:46:34;;;;;;;16.50;7.93;;;;;;;1.57;53.41;97468.16;5047376;28;20501;-56
2021/01/31 10:48:59;;;;;;;12.88;8.27;;;;;;;1.51;53.13;97442.28;5047646;28;20029;-59
2021/01/31 10:51:32;;;;;;;14.77;8.45;;;;;;;1.58;53.51;97440.81;5047791;28;20025;-59
2021/01/31 10:53:58;;;;;;;12.18;8.15;;;;;;;1.58;53.49;97439.97;5048091;28;20484;-60
2021/01/31 10:56:24;;;;;;;18.83;8.77;;;;;;;1.50;53.46;97435.34;5048279;28;20488;-59
2021/01/31 10:58:50;;;;;;;21.10;9.73;;;;;;;1.53;53.68;97429.81;5029642;28;20059;-61
2021/01/31 11:01:16;;;;;;;20.40;9.68;;;;;;;1.51;53.69;97447.56;5048610;28;20037;-60
2021/01/31 11:03:41;;;;;;;20.27;9.70;;;;;;;1.43;53.86;97439.41;5047731;28;20032;-61
2021/01/31 11:06:07;;;;;;;23.38;10.90;;;;;;;0.92;54.30;97354.75;5047484;28;20120;-59
2021/01/31 11:08:32;;;;;;;23.50;11.40;;;;;;;1.42;54.44;97443.00;5046325;28;20120;-60
2021/01/31 11:10:58;;;;;;;19.52;10.23;;;;;;;1.36;54.11;97430.34;5048028;28;20093;-62
2021/01/31 11:13:25;;;;;;;22.83;11.57;;;;;;;1.39;54.78;97438.84;5050808;28;20183;-59
2021/01/31 11:15:51;;;;;;;16.42;10.50;;;;;;;1.14;55.00;97401.28;5047918;28;20051;-58
2021/01/31 11:18:16;;;;;;;24.00;10.45;;;;;;;1.33;54.92;97436.72;5047672;28;20029;-62
2021/01/31 11:20:42;;;;;;;21.10;10.65;;;;;;;1.12;54.98;97407.63;5046793;28;20049;-61
2021/01/31 11:23:08;;;;;;;20.17;10.65;;;;;;;1.36;54.99;97443.53;5049262;28;20036;-59
2021/01/31 11:25:33;;;;;;;21.10;12.50;;;;;;;1.31;54.98;97445.69;5051285;28;20056;-58
2021/01/31 11:27:59;;;;;;;18.17;10.68;;;;;;;1.32;55.07;97439.47;5051437;28;20395;-53
2021/01/31 11:30:26;;;;;;;19.60;10.80;;;;;;;1.35;55.02;97458.53;5051647;28;20063;-62
2021/01/31 11:32:52;;;;;;;18.00;10.80;;;;;;;1.33;55.25;97446.41;5051673;28;20033;-63
2021/01/31 11:35:17;;;;;;;20.77;10.75;;;;;;;1.36;55.44;97460.19;5047106;28;20036;-60
2021/01/31 11:37:43;;;;;;;21.48;10.52;;;;;;;1.05;55.32;97395.94;5048632;28;20048;-58
2021/01/31 11:40:10;;;;;;;16.65;10.68;;;;;;;1.34;55.30;97448.94;5054863;28;20039;-63
2021/01/31 11:42:35;;;;;;;15.40;9.80;;;;;;;1.48;55.19;97462.78;5057154;28;20037;-56
2021/01/31 11:45:02;;;;;;;18.05;10.38;;;;;;;1.49;54.84;97453.91;5068516;28;20086;-59
2021/01/31 11:47:27;;;;;;;18.55;10.18;;;;;;;1.62;54.58;97473.06;5057822;28;20634;-63